sensor_id;sensor_type;location;lat;lon;timestamp;pressure;altitude;pressure_sealevel;temperature;humidity
26443;BME280;5563;52.296;6.806;2023-08-06T00:02:16;100457.50;;;13.39;100.00
26443;BME280;5563;52.296;6.806;2023-08-06T00:04:53;100473.81;;;13.45;100.00
26443;BME280;5563;52.296;6.806;2023-08-06T00:11:07;100453.44;;;13.35;100.00
26443;BME280;5563;52.296;6.806;2023-08-06T00:13:43;100435.75;;;13.24;100.00
26443;BME280;5563;52.296;6.806;2023-08-06T00:16:13;100459.34;;;13.38;100.00
26443;BME280;5563;52.296;6.806;2023-08-06T00:18:56;100442.34;;;13.30;100.00
26443;BME280;5563;52.296;6.806;2023-08-06T00:21:32;100440.78;;;13.27;100.00
26443;BME280;5563;52.296;6.806;2023-08-06T00:24:22;100427.88;;;13.23;100.00
26443;BME280;5563;52.296;6.806;2023-08-06T00:37:28;100437.56;;;13.24;100.00
26443;BME280;5563;52.296;6.806;2023-08-06T00:40:04;100435.16;;;13.30;100.00
26443;BME280;5563;52.296;6.806;2023-08-06T00:42:35;100450.75;;;13.35;100.00
26443;BME280;5563;52.296;6.806;2023-08-06T00:45:27;100436.13;;;13.29;100.00
26443;BME280;5563;52.296;6.806;2023-08-06T00:48:12;100444.81;;;13.41;100.00
26443;BME280;5563;52.296;6.806;2023-08-06T00:50:53;100433.56;;;13.37;100.00
26443;BME280;5563;52.296;6.806;2023-08-06T00:53:26;100434.69;;;13.35;100.00
26443;BME280;5563;52.296;6.806;2023-08-06T00:56:04;100435.38;;;13.37;100.00
26443;BME280;5563;52.296;6.806;2023-08-06T00:58:45;100428.78;;;13.31;100.00
26443;BME280;5563;52.296;6.806;2023-08-06T01:04:49;100427.13;;;13.30;100.00
26443;BME280;5563;52.296;6.806;2023-08-06T01:07:49;100427.41;;;13.27;100.00
26443;BME280;5563;52.296;6.806;2023-08-06T01:17:23;100425.03;;;13.24;100.00
26443;BME280;5563;52.296;6.806;2023-08-06T01:34:08;100409.56;;;13.18;100.00
26443;BME280;5563;52.296;6.806;2023-08-06T01:40:20;100406.91;;;13.18;100.00
26443;BME280;5563;52.296;6.806;2023-08-06T01:47:04;100424.56;;;13.29;100.00
26443;BME280;5563;52.296;6.806;2023-08-06T01:49:37;100410.41;;;13.19;100.00
26443;BME280;5563;52.296;6.806;2023-08-06T01:52:35;100407.31;;;13.23;100.00
26443;BME280;5563;52.296;6.806;2023-08-06T02:02:15;100411.50;;;13.26;100.00
26443;BME280;5563;52.296;6.806;2023-08-06T02:12:06;100379.75;;;13.13;100.00
26443;BME280;5563;52.296;6.806;2023-08-06T02:14:41;100390.44;;;13.13;100.00
26443;BME280;5563;52.296;6.806;2023-08-06T02:17:16;100398.28;;;13.24;100.00
26443;BME280;5563;52.296;6.806;2023-08-06T02:19:56;100374.16;;;13.07;100.00
26443;BME280;5563;52.296;6.806;2023-08-06T02:26:09;100373.84;;;13.10;100.00
26443;BME280;5563;52.296;6.806;2023-08-06T02:28:48;100383.81;;;13.17;100.00
26443;BME280;5563;52.296;6.806;2023-08-06T02:31:20;100365.81;;;13.10;100.00
26443;BME280;5563;52.296;6.806;2023-08-06T02:34:03;100375.78;;;13.17;100.00
26443;BME280;5563;52.296;6.806;2023-08-06T02:36:37;100367.06;;;13.15;100.00
26443;BME280;5563;52.296;6.806;2023-08-06T02:39:33;100361.00;;;13.13;100.00
26443;BME280;5563;52.296;6.806;2023-08-06T02:46:27;100346.38;;;13.08;100.00
26443;BME280;5563;52.296;6.806;2023-08-06T02:49:12;100353.97;;;13.12;100.00
26443;BME280;5563;52.296;6.806;2023-08-06T02:51:48;100344.72;;;13.07;100.00
26443;BME280;5563;52.296;6.806;2023-08-06T02:54:37;100345.41;;;13.09;100.00
26443;BME280;5563;52.296;6.806;2023-08-06T02:57:26;100360.41;;;13.19;100.00
26443;BME280;5563;52.296;6.806;2023-08-06T03:00:13;100343.03;;;13.06;100.00
26443;BME280;5563;52.296;6.806;2023-08-06T03:03:00;100348.09;;;13.09;100.00
26443;BME280;5563;52.296;6.806;2023-08-06T03:05:31;100351.31;;;13.12;100.00
26443;BME280;5563;52.296;6.806;2023-08-06T03:08:10;100367.28;;;13.22;100.00
26443;BME280;5563;52.296;6.806;2023-08-06T03:10:44;100344.25;;;13.11;100.00
26443;BME280;5563;52.296;6.806;2023-08-06T03:17:13;100334.00;;;13.07;100.00
26443;BME280;5563;52.296;6.806;2023-08-06T03:23:18;100337.75;;;13.14;100.00
26443;BME280;5563;52.296;6.806;2023-08-06T03:26:03;100340.50;;;13.22;100.00
26443;BME280;5563;52.296;6.806;2023-08-06T03:28:43;100341.28;;;13.14;100.00
26443;BME280;5563;52.296;6.806;2023-08-06T03:31:39;100349.84;;;13.18;100.00
26443;BME280;5563;52.296;6.806;2023-08-06T03:34:14;100337.38;;;13.09;100.00
26443;BME280;5563;52.296;6.806;2023-08-06T03:36:48;100371.19;;;13.27;100.00
26443;BME280;5563;52.296;6.806;2023-08-06T03:43:11;100358.88;;;13.17;100.00
26443;BME280;5563;52.296;6.806;2023-08-06T03:48:47;100352.97;;;13.13;100.00
26443;BME280;5563;52.296;6.806;2023-08-06T03:54:47;100342.81;;;13.17;100.00
26443;BME280;5563;52.296;6.806;2023-08-06T03:57:23;100342.81;;;13.17;100.00
26443;BME280;5563;52.296;6.806;2023-08-06T04:00:03;100340.81;;;13.19;100.00
26443;BME280;5563;52.296;6.806;2023-08-06T04:06:19;100336.84;;;13.23;100.00
26443;BME280;5563;52.296;6.806;2023-08-06T04:12:19;100338.78;;;13.30;100.00
26443;BME280;5563;52.296;6.806;2023-08-06T04:14:53;100335.94;;;13.32;100.00
26443;BME280;5563;52.296;6.806;2023-08-06T04:17:30;100340.28;;;13.33;100.00
26443;BME280;5563;52.296;6.806;2023-08-06T04:20:34;100338.38;;;13.25;100.00
26443;BME280;5563;52.296;6.806;2023-08-06T04:23:14;100337.72;;;13.23;100.00
26443;BME280;5563;52.296;6.806;2023-08-06T04:26:08;100336.53;;;13.26;100.00
26443;BME280;5563;52.296;6.806;2023-08-06T04:28:52;100335.69;;;13.25;100.00
26443;BME280;5563;52.296;6.806;2023-08-06T04:31:19;100324.06;;;13.17;100.00
26443;BME280;5563;52.296;6.806;2023-08-06T04:33:55;100334.19;;;13.23;100.00
26443;BME280;5563;52.296;6.806;2023-08-06T04:36:22;100350.03;;;13.34;100.00
26443;BME280;5563;52.296;6.806;2023-08-06T04:38:58;100323.09;;;13.18;100.00
26443;BME280;5563;52.296;6.806;2023-08-06T04:41:26;100341.03;;;13.25;100.00
26443;BME280;5563;52.296;6.806;2023-08-06T04:48:16;100351.75;;;13.43;100.00
26443;BME280;5563;52.296;6.806;2023-08-06T04:54:36;100361.84;;;13.49;100.00
26443;BME280;5563;52.296;6.806;2023-08-06T05:01:08;100357.56;;;13.56;100.00
26443;BME280;5563;52.296;6.806;2023-08-06T05:10:53;100328.22;;;13.46;100.00
26443;BME280;5563;52.296;6.806;2023-08-06T05:16:59;100352.91;;;13.58;100.00
26443;BME280;5563;52.296;6.806;2023-08-06T05:19:29;100340.19;;;13.60;100.00
26443;BME280;5563;52.296;6.806;2023-08-06T05:22:25;100350.28;;;13.66;100.00
26443;BME280;5563;52.296;6.806;2023-08-06T05:25:07;100369.78;;;13.76;100.00
26443;BME280;5563;52.296;6.806;2023-08-06T05:27:44;100367.13;;;13.76;100.00
26443;BME280;5563;52.296;6.806;2023-08-06T05:30:15;100373.53;;;13.83;100.00
26443;BME280;5563;52.296;6.806;2023-08-06T05:33:18;100380.56;;;13.84;100.00
26443;BME280;5563;52.296;6.806;2023-08-06T05:35:49;100372.53;;;13.84;100.00
26443;BME280;5563;52.296;6.806;2023-08-06T05:38:37;100365.13;;;13.78;100.00
26443;BME280;5563;52.296;6.806;2023-08-06T05:41:04;100377.09;;;13.91;100.00
26443;BME280;5563;52.296;6.806;2023-08-06T05:47:31;100364.25;;;13.95;100.00
26443;BME280;5563;52.296;6.806;2023-08-06T05:53:36;100374.53;;;14.07;100.00
26443;BME280;5563;52.296;6.806;2023-08-06T05:56:19;100363.50;;;14.10;100.00
26443;BME280;5563;52.296;6.806;2023-08-06T05:58:58;100357.16;;;14.12;100.00
26443;BME280;5563;52.296;6.806;2023-08-06T06:01:36;100383.94;;;14.29;100.00
26443;BME280;5563;52.296;6.806;2023-08-06T06:04:19;100361.78;;;14.27;100.00
26443;BME280;5563;52.296;6.806;2023-08-06T06:06:51;100371.13;;;14.49;100.00
26443;BME280;5563;52.296;6.806;2023-08-06T06:09:28;100379.44;;;14.63;100.00
26443;BME280;5563;52.296;6.806;2023-08-06T06:15:41;100385.06;;;14.86;100.00
26443;BME280;5563;52.296;6.806;2023-08-06T06:18:28;100385.41;;;14.91;100.00
26443;BME280;5563;52.296;6.806;2023-08-06T06:21:02;100383.06;;;14.96;100.00
26443;BME280;5563;52.296;6.806;2023-08-06T06:23:34;100376.03;;;14.95;100.00
26443;BME280;5563;52.296;6.806;2023-08-06T06:26:13;100377.00;;;14.94;100.00
26443;BME280;5563;52.296;6.806;2023-08-06T06:28:55;100383.09;;;15.04;100.00
26443;BME280;5563;52.296;6.806;2023-08-06T06:31:24;100404.63;;;15.28;100.00
26443;BME280;5563;52.296;6.806;2023-08-06T06:34:16;100385.66;;;15.22;100.00
26443;BME280;5563;52.296;6.806;2023-08-06T06:37:01;100401.09;;;15.28;100.00
26443;BME280;5563;52.296;6.806;2023-08-06T06:39:38;100403.63;;;15.29;100.00
26443;BME280;5563;52.296;6.806;2023-08-06T06:42:11;100389.16;;;15.22;100.00
26443;BME280;5563;52.296;6.806;2023-08-06T06:44:46;100386.19;;;15.25;100.00
26443;BME280;5563;52.296;6.806;2023-08-06T06:47:27;100404.81;;;15.35;100.00
26443;BME280;5563;52.296;6.806;2023-08-06T06:50:48;100420.31;;;15.49;100.00
26443;BME280;5563;52.296;6.806;2023-08-06T06:53:54;100421.50;;;15.54;100.00
26443;BME280;5563;52.296;6.806;2023-08-06T06:56:32;100393.13;;;15.44;100.00
26443;BME280;5563;52.296;6.806;2023-08-06T06:59:23;100408.25;;;15.61;100.00
26443;BME280;5563;52.296;6.806;2023-08-06T07:02:05;100404.06;;;15.58;100.00
26443;BME280;5563;52.296;6.806;2023-08-06T07:04:46;100388.59;;;15.52;100.00
26443;BME280;5563;52.296;6.806;2023-08-06T07:07:22;100394.16;;;15.59;100.00
26443;BME280;5563;52.296;6.806;2023-08-06T07:16:59;100434.00;;;15.87;100.00
26443;BME280;5563;52.296;6.806;2023-08-06T07:23:16;100411.31;;;15.82;100.00
26443;BME280;5563;52.296;6.806;2023-08-06T07:26:06;100412.97;;;15.83;100.00
26443;BME280;5563;52.296;6.806;2023-08-06T07:29:10;100405.41;;;15.86;100.00
26443;BME280;5563;52.296;6.806;2023-08-06T07:31:45;100424.25;;;15.94;100.00
26443;BME280;5563;52.296;6.806;2023-08-06T07:34:34;100411.09;;;15.75;100.00
26443;BME280;5563;52.296;6.806;2023-08-06T07:37:25;100433.47;;;15.92;100.00
26443;BME280;5563;52.296;6.806;2023-08-06T07:40:06;100404.91;;;15.83;100.00
26443;BME280;5563;52.296;6.806;2023-08-06T07:46:06;100414.81;;;15.90;100.00
26443;BME280;5563;52.296;6.806;2023-08-06T07:49:29;100423.38;;;15.94;100.00
26443;BME280;5563;52.296;6.806;2023-08-06T07:55:50;100417.50;;;15.90;100.00
26443;BME280;5563;52.296;6.806;2023-08-06T07:58:45;100415.81;;;15.97;100.00
26443;BME280;5563;52.296;6.806;2023-08-06T08:01:35;100436.13;;;16.16;100.00
26443;BME280;5563;52.296;6.806;2023-08-06T08:04:09;100440.00;;;16.21;100.00
26443;BME280;5563;52.296;6.806;2023-08-06T08:06:48;100420.69;;;16.18;100.00
26443;BME280;5563;52.296;6.806;2023-08-06T08:09:18;100420.19;;;16.14;100.00
26443;BME280;5563;52.296;6.806;2023-08-06T08:15:25;100452.09;;;16.50;100.00
26443;BME280;5563;52.296;6.806;2023-08-06T08:18:27;100433.63;;;16.47;100.00
26443;BME280;5563;52.296;6.806;2023-08-06T08:21:12;100422.31;;;16.43;100.00
26443;BME280;5563;52.296;6.806;2023-08-06T08:23:42;100432.59;;;16.56;100.00
26443;BME280;5563;52.296;6.806;2023-08-06T08:26:24;100417.06;;;16.66;100.00
26443;BME280;5563;52.296;6.806;2023-08-06T08:29:20;100428.28;;;16.85;100.00
26443;BME280;5563;52.296;6.806;2023-08-06T08:31:57;100426.25;;;16.95;100.00
26443;BME280;5563;52.296;6.806;2023-08-06T08:34:38;100418.97;;;16.96;100.00
26443;BME280;5563;52.296;6.806;2023-08-06T08:37:21;100430.16;;;17.15;100.00
26443;BME280;5563;52.296;6.806;2023-08-06T08:39:57;100428.44;;;17.22;100.00
26443;BME280;5563;52.296;6.806;2023-08-06T08:42:26;100435.44;;;17.40;100.00
26443;BME280;5563;52.296;6.806;2023-08-06T08:45:02;100436.38;;;17.55;100.00
26443;BME280;5563;52.296;6.806;2023-08-06T08:47:34;100424.22;;;17.59;100.00
26443;BME280;5563;52.296;6.806;2023-08-06T08:50:16;100429.69;;;17.73;100.00
26443;BME280;5563;52.296;6.806;2023-08-06T08:52:58;100417.22;;;17.72;100.00
26443;BME280;5563;52.296;6.806;2023-08-06T08:55:47;100425.75;;;17.84;100.00
26443;BME280;5563;52.296;6.806;2023-08-06T08:58:29;100416.19;;;17.96;98.29
26443;BME280;5563;52.296;6.806;2023-08-06T09:01:06;100422.97;;;18.14;97.49
26443;BME280;5563;52.296;6.806;2023-08-06T09:06:59;100423.03;;;18.44;96.74
26443;BME280;5563;52.296;6.806;2023-08-06T09:09:31;100427.56;;;18.43;95.47
26443;BME280;5563;52.296;6.806;2023-08-06T09:12:19;100426.84;;;18.49;94.54
26443;BME280;5563;52.296;6.806;2023-08-06T09:15:04;100416.44;;;18.46;94.78
26443;BME280;5563;52.296;6.806;2023-08-06T09:17:53;100425.38;;;18.61;95.53
26443;BME280;5563;52.296;6.806;2023-08-06T09:20:41;100431.81;;;18.60;94.00
26443;BME280;5563;52.296;6.806;2023-08-06T09:23:12;100422.31;;;18.64;92.40
26443;BME280;5563;52.296;6.806;2023-08-06T09:26:01;100457.03;;;18.96;91.75
26443;BME280;5563;52.296;6.806;2023-08-06T09:29:09;100438.13;;;18.96;91.83
26443;BME280;5563;52.296;6.806;2023-08-06T09:31:49;100448.72;;;19.12;90.65
26443;BME280;5563;52.296;6.806;2023-08-06T09:34:39;100436.34;;;19.03;88.70
26443;BME280;5563;52.296;6.806;2023-08-06T09:37:13;100441.19;;;19.08;90.08
26443;BME280;5563;52.296;6.806;2023-08-06T09:39:52;100459.00;;;19.31;89.68
26443;BME280;5563;52.296;6.806;2023-08-06T09:42:29;100436.97;;;19.20;89.24
26443;BME280;5563;52.296;6.806;2023-08-06T09:45:06;100458.44;;;19.36;87.96
26443;BME280;5563;52.296;6.806;2023-08-06T09:47:36;100438.47;;;19.22;87.86
26443;BME280;5563;52.296;6.806;2023-08-06T09:50:21;100436.03;;;19.27;90.03
26443;BME280;5563;52.296;6.806;2023-08-06T09:52:56;100464.34;;;19.46;87.17
26443;BME280;5563;52.296;6.806;2023-08-06T09:55:37;100445.28;;;19.48;85.73
26443;BME280;5563;52.296;6.806;2023-08-06T09:58:17;100467.84;;;19.76;85.60
26443;BME280;5563;52.296;6.806;2023-08-06T10:01:04;100450.00;;;19.81;86.57
26443;BME280;5563;52.296;6.806;2023-08-06T10:03:40;100456.31;;;20.09;84.46
26443;BME280;5563;52.296;6.806;2023-08-06T10:06:14;100449.97;;;20.45;83.20
26443;BME280;5563;52.296;6.806;2023-08-06T10:08:53;100445.72;;;20.97;84.96
26443;BME280;5563;52.296;6.806;2023-08-06T10:11:23;100441.31;;;21.30;76.90
26443;BME280;5563;52.296;6.806;2023-08-06T10:17:21;100460.19;;;21.52;77.33
26443;BME280;5563;52.296;6.806;2023-08-06T10:20:11;100446.72;;;21.24;79.09
26443;BME280;5563;52.296;6.806;2023-08-06T10:23:18;100447.94;;;21.15;80.90
26443;BME280;5563;52.296;6.806;2023-08-06T10:25:59;100461.69;;;21.13;80.15
26443;BME280;5563;52.296;6.806;2023-08-06T10:28:35;100445.03;;;20.82;78.95
26443;BME280;5563;52.296;6.806;2023-08-06T10:31:11;100440.66;;;20.54;79.10
26443;BME280;5563;52.296;6.806;2023-08-06T10:33:45;100452.75;;;20.30;81.22
26443;BME280;5563;52.296;6.806;2023-08-06T10:36:19;100445.75;;;19.93;82.79
26443;BME280;5563;52.296;6.806;2023-08-06T10:38:48;100454.69;;;19.94;82.50
26443;BME280;5563;52.296;6.806;2023-08-06T10:41:35;100463.19;;;19.91;79.89
26443;BME280;5563;52.296;6.806;2023-08-06T10:44:06;100451.66;;;19.82;81.67
26443;BME280;5563;52.296;6.806;2023-08-06T10:46:46;100459.03;;;20.09;81.99
26443;BME280;5563;52.296;6.806;2023-08-06T10:49:27;100452.63;;;20.17;80.17
26443;BME280;5563;52.296;6.806;2023-08-06T10:52:03;100443.09;;;20.21;80.29
26443;BME280;5563;52.296;6.806;2023-08-06T10:54:30;100427.25;;;20.18;78.25
26443;BME280;5563;52.296;6.806;2023-08-06T10:57:09;100458.94;;;20.45;79.04
26443;BME280;5563;52.296;6.806;2023-08-06T10:59:37;100453.75;;;20.50;81.40
26443;BME280;5563;52.296;6.806;2023-08-06T11:02:10;100425.13;;;20.34;77.38
26443;BME280;5563;52.296;6.806;2023-08-06T11:04:38;100453.59;;;20.58;79.02
26443;BME280;5563;52.296;6.806;2023-08-06T11:07:13;100436.56;;;20.64;76.64
26443;BME280;5563;52.296;6.806;2023-08-06T11:09:43;100429.53;;;20.70;80.28
26443;BME280;5563;52.296;6.806;2023-08-06T11:12:10;100436.69;;;20.84;76.42
26443;BME280;5563;52.296;6.806;2023-08-06T11:15:03;100443.50;;;20.73;76.78
26443;BME280;5563;52.296;6.806;2023-08-06T11:17:41;100462.31;;;20.81;74.74
26443;BME280;5563;52.296;6.806;2023-08-06T11:20:21;100443.75;;;20.78;77.38
26443;BME280;5563;52.296;6.806;2023-08-06T11:23:10;100467.81;;;20.94;74.20
26443;BME280;5563;52.296;6.806;2023-08-06T11:25:45;100448.25;;;20.99;74.79
26443;BME280;5563;52.296;6.806;2023-08-06T11:28:12;100449.66;;;21.29;74.97
26443;BME280;5563;52.296;6.806;2023-08-06T11:31:24;100455.63;;;21.59;77.07
26443;BME280;5563;52.296;6.806;2023-08-06T11:33:54;100439.44;;;21.78;72.42
26443;BME280;5563;52.296;6.806;2023-08-06T11:36:34;100454.28;;;22.15;73.75
26443;BME280;5563;52.296;6.806;2023-08-06T11:39:02;100425.88;;;22.37;76.36
26443;BME280;5563;52.296;6.806;2023-08-06T11:41:40;100457.44;;;22.77;72.43
26443;BME280;5563;52.296;6.806;2023-08-06T11:44:11;100438.41;;;22.71;71.58
26443;BME280;5563;52.296;6.806;2023-08-06T11:46:55;100438.38;;;22.51;71.94
26443;BME280;5563;52.296;6.806;2023-08-06T11:49:41;100446.34;;;22.46;73.01
26443;BME280;5563;52.296;6.806;2023-08-06T11:55:09;100441.13;;;22.18;73.76
26443;BME280;5563;52.296;6.806;2023-08-06T11:57:47;100437.78;;;21.97;72.26
26443;BME280;5563;52.296;6.806;2023-08-06T12:00:15;100449.22;;;21.86;72.21
26443;BME280;5563;52.296;6.806;2023-08-06T12:02:51;100448.28;;;21.46;72.82
26443;BME280;5563;52.296;6.806;2023-08-06T12:05:20;100450.84;;;21.13;74.73
26443;BME280;5563;52.296;6.806;2023-08-06T12:07:58;100435.19;;;20.81;78.62
26443;BME280;5563;52.296;6.806;2023-08-06T12:10:27;100432.28;;;20.83;79.20
26443;BME280;5563;52.296;6.806;2023-08-06T12:13:02;100437.34;;;20.86;75.38
26443;BME280;5563;52.296;6.806;2023-08-06T12:15:29;100423.06;;;20.71;77.41
26443;BME280;5563;52.296;6.806;2023-08-06T12:18:22;100455.44;;;20.79;78.26
26443;BME280;5563;52.296;6.806;2023-08-06T12:21:02;100444.22;;;20.88;79.33
26443;BME280;5563;52.296;6.806;2023-08-06T12:23:36;100444.31;;;21.01;78.19
26443;BME280;5563;52.296;6.806;2023-08-06T12:26:03;100424.72;;;20.99;78.77
26443;BME280;5563;52.296;6.806;2023-08-06T12:28:51;100432.66;;;21.07;79.58
26443;BME280;5563;52.296;6.806;2023-08-06T12:31:21;100463.25;;;21.35;79.34
26443;BME280;5563;52.296;6.806;2023-08-06T12:34:00;100455.38;;;21.54;78.55
26443;BME280;5563;52.296;6.806;2023-08-06T12:36:34;100453.34;;;21.62;76.13
26443;BME280;5563;52.296;6.806;2023-08-06T12:39:00;100441.22;;;21.58;77.37
26443;BME280;5563;52.296;6.806;2023-08-06T12:41:34;100440.16;;;21.59;77.70
26443;BME280;5563;52.296;6.806;2023-08-06T12:44:00;100451.63;;;21.55;75.92
26443;BME280;5563;52.296;6.806;2023-08-06T12:46:34;100435.53;;;21.46;80.33
26443;BME280;5563;52.296;6.806;2023-08-06T12:49:01;100452.06;;;21.65;76.46
26443;BME280;5563;52.296;6.806;2023-08-06T12:51:35;100437.66;;;21.58;75.25
26443;BME280;5563;52.296;6.806;2023-08-06T12:54:02;100422.81;;;21.40;72.22
26443;BME280;5563;52.296;6.806;2023-08-06T12:56:49;100442.16;;;21.37;73.87
26443;BME280;5563;52.296;6.806;2023-08-06T12:59:30;100440.50;;;21.30;71.50
26443;BME280;5563;52.296;6.806;2023-08-06T13:02:13;100453.00;;;21.31;72.53
26443;BME280;5563;52.296;6.806;2023-08-06T13:04:40;100450.28;;;21.31;73.46
26443;BME280;5563;52.296;6.806;2023-08-06T13:07:14;100451.28;;;21.23;71.79
26443;BME280;5563;52.296;6.806;2023-08-06T13:09:41;100439.78;;;21.08;72.52
26443;BME280;5563;52.296;6.806;2023-08-06T13:12:35;100435.81;;;21.11;72.70
26443;BME280;5563;52.296;6.806;2023-08-06T13:15:09;100447.56;;;21.24;73.21
26443;BME280;5563;52.296;6.806;2023-08-06T13:17:45;100449.66;;;21.29;69.50
26443;BME280;5563;52.296;6.806;2023-08-06T13:20:25;100452.13;;;21.24;71.48
26443;BME280;5563;52.296;6.806;2023-08-06T13:23:05;100457.78;;;21.29;72.07
26443;BME280;5563;52.296;6.806;2023-08-06T13:25:38;100425.72;;;20.98;70.13
26443;BME280;5563;52.296;6.806;2023-08-06T13:28:13;100430.63;;;20.82;69.33
26443;BME280;5563;52.296;6.806;2023-08-06T13:34:25;100443.28;;;20.68;70.73
26443;BME280;5563;52.296;6.806;2023-08-06T13:37:08;100429.09;;;20.66;71.43
26443;BME280;5563;52.296;6.806;2023-08-06T13:40:02;100451.84;;;20.72;71.61
26443;BME280;5563;52.296;6.806;2023-08-06T13:42:50;100458.28;;;20.71;71.60
26443;BME280;5563;52.296;6.806;2023-08-06T13:45:26;100471.19;;;20.41;77.63
26443;BME280;5563;52.296;6.806;2023-08-06T13:47:55;100484.88;;;19.76;81.47
26443;BME280;5563;52.296;6.806;2023-08-06T13:50:31;100479.22;;;19.06;83.44
26443;BME280;5563;52.296;6.806;2023-08-06T13:56:50;100491.06;;;17.94;89.67
26443;BME280;5563;52.296;6.806;2023-08-06T13:59:41;100490.00;;;17.50;90.67
26443;BME280;5563;52.296;6.806;2023-08-06T14:02:17;100498.66;;;17.29;93.11
26443;BME280;5563;52.296;6.806;2023-08-06T14:08:01;100499.13;;;16.94;94.56
26443;BME280;5563;52.296;6.806;2023-08-06T14:25:00;100503.91;;;16.52;100.00
26443;BME280;5563;52.296;6.806;2023-08-06T14:27:28;100496.31;;;16.39;100.00
26443;BME280;5563;52.296;6.806;2023-08-06T14:30:02;100521.56;;;16.38;100.00
26443;BME280;5563;52.296;6.806;2023-08-06T14:32:50;100551.84;;;16.40;100.00
26443;BME280;5563;52.296;6.806;2023-08-06T14:35:35;100538.53;;;16.23;100.00
26443;BME280;5563;52.296;6.806;2023-08-06T14:38:14;100556.03;;;16.18;100.00
26443;BME280;5563;52.296;6.806;2023-08-06T14:40:48;100570.81;;;16.14;100.00
26443;BME280;5563;52.296;6.806;2023-08-06T14:47:07;100587.41;;;16.02;100.00
26443;BME280;5563;52.296;6.806;2023-08-06T14:49:49;100568.72;;;15.84;100.00
26443;BME280;5563;52.296;6.806;2023-08-06T14:52:24;100585.19;;;15.73;100.00
26443;BME280;5563;52.296;6.806;2023-08-06T14:54:51;100585.97;;;15.66;100.00
26443;BME280;5563;52.296;6.806;2023-08-06T14:57:29;100585.25;;;15.56;100.00
26443;BME280;5563;52.296;6.806;2023-08-06T15:00:07;100605.19;;;15.45;100.00
26443;BME280;5563;52.296;6.806;2023-08-06T15:06:05;100583.88;;;15.18;100.00
26443;BME280;5563;52.296;6.806;2023-08-06T15:08:42;100600.00;;;15.18;100.00
26443;BME280;5563;52.296;6.806;2023-08-06T15:11:23;100614.63;;;15.24;100.00
26443;BME280;5563;52.296;6.806;2023-08-06T15:14:00;100609.03;;;15.17;100.00
26443;BME280;5563;52.296;6.806;2023-08-06T15:16:34;100599.59;;;15.13;100.00
26443;BME280;5563;52.296;6.806;2023-08-06T15:19:36;100597.78;;;15.13;100.00
26443;BME280;5563;52.296;6.806;2023-08-06T15:23:04;100622.22;;;15.28;100.00
26443;BME280;5563;52.296;6.806;2023-08-06T15:25:47;100607.25;;;15.26;100.00
26443;BME280;5563;52.296;6.806;2023-08-06T15:28:28;100605.56;;;15.25;100.00
26443;BME280;5563;52.296;6.806;2023-08-06T15:31:20;100628.47;;;15.37;100.00
26443;BME280;5563;52.296;6.806;2023-08-06T15:33:57;100618.22;;;15.32;100.00
26443;BME280;5563;52.296;6.806;2023-08-06T15:36:25;100617.34;;;15.32;100.00
26443;BME280;5563;52.296;6.806;2023-08-06T15:39:11;100629.88;;;15.41;100.00
26443;BME280;5563;52.296;6.806;2023-08-06T15:45:30;100638.63;;;15.43;100.00
26443;BME280;5563;52.296;6.806;2023-08-06T15:48:09;100668.44;;;15.57;100.00
26443;BME280;5563;52.296;6.806;2023-08-06T15:51:03;100640.00;;;15.47;100.00
26443;BME280;5563;52.296;6.806;2023-08-06T15:57:37;100662.47;;;15.46;100.00
26443;BME280;5563;52.296;6.806;2023-08-06T16:00:17;100676.44;;;15.49;100.00
26443;BME280;5563;52.296;6.806;2023-08-06T16:02:59;100680.94;;;15.49;100.00
26443;BME280;5563;52.296;6.806;2023-08-06T16:09:35;100705.47;;;15.46;100.00
26443;BME280;5563;52.296;6.806;2023-08-06T16:12:17;100710.16;;;15.44;100.00
26443;BME280;5563;52.296;6.806;2023-08-06T16:28:44;100707.31;;;15.28;100.00
26443;BME280;5563;52.296;6.806;2023-08-06T16:35:02;100726.59;;;15.23;100.00
26443;BME280;5563;52.296;6.806;2023-08-06T16:37:45;100733.28;;;15.19;100.00
26443;BME280;5563;52.296;6.806;2023-08-06T16:40:30;100724.69;;;15.15;100.00
26443;BME280;5563;52.296;6.806;2023-08-06T16:50:29;100740.34;;;15.02;100.00
26443;BME280;5563;52.296;6.806;2023-08-06T16:52:59;100734.16;;;15.02;100.00
26443;BME280;5563;52.296;6.806;2023-08-06T16:55:52;100738.66;;;15.01;100.00
26443;BME280;5563;52.296;6.806;2023-08-06T17:02:21;100761.53;;;15.05;100.00
26443;BME280;5563;52.296;6.806;2023-08-06T17:08:33;100766.91;;;15.05;100.00
26443;BME280;5563;52.296;6.806;2023-08-06T17:15:09;100771.03;;;15.00;100.00
26443;BME280;5563;52.296;6.806;2023-08-06T17:21:29;100783.84;;;15.06;100.00
26443;BME280;5563;52.296;6.806;2023-08-06T17:27:51;100786.31;;;14.99;100.00
26443;BME280;5563;52.296;6.806;2023-08-06T17:34:13;100786.78;;;14.95;100.00
26443;BME280;5563;52.296;6.806;2023-08-06T17:36:47;100791.13;;;14.96;100.00
26443;BME280;5563;52.296;6.806;2023-08-06T17:43:12;100807.78;;;14.99;100.00
26443;BME280;5563;52.296;6.806;2023-08-06T17:50:12;100800.97;;;14.87;100.00
26443;BME280;5563;52.296;6.806;2023-08-06T17:56:34;100807.06;;;14.80;100.00
26443;BME280;5563;52.296;6.806;2023-08-06T18:02:47;100802.47;;;14.72;100.00
26443;BME280;5563;52.296;6.806;2023-08-06T18:05:37;100806.47;;;14.68;100.00
26443;BME280;5563;52.296;6.806;2023-08-06T18:08:13;100810.13;;;14.67;100.00
26443;BME280;5563;52.296;6.806;2023-08-06T18:10:55;100835.09;;;14.77;100.00
26443;BME280;5563;52.296;6.806;2023-08-06T18:13:55;100832.59;;;14.66;100.00
26443;BME280;5563;52.296;6.806;2023-08-06T18:16:32;100828.81;;;14.59;100.00
26443;BME280;5563;52.296;6.806;2023-08-06T18:19:11;100833.34;;;14.59;100.00
26443;BME280;5563;52.296;6.806;2023-08-06T18:36:35;100858.84;;;14.45;100.00